sensor_id;sensor_type;location;lat;lon;timestamp;P1;durP1;ratioP1;P2;durP2;ratioP2
20441;SDS011;10380;52.102;20.614;2022-08-01T00:00:35;7.50;;;4.38;;
20441;SDS011;10380;52.102;20.614;2022-08-01T00:03:02;7.63;;;4.40;;
20441;SDS011;10380;52.102;20.614;2022-08-01T00:05:30;6.53;;;4.00;;
20441;SDS011;10380;52.102;20.614;2022-08-01T00:07:57;16.55;;;5.50;;
20441;SDS011;10380;52.102;20.614;2022-08-01T00:10:24;7.75;;;4.05;;
20441;SDS011;10380;52.102;20.614;2022-08-01T00:12:52;11.98;;;4.38;;
20441;SDS011;10380;52.102;20.614;2022-08-01T00:15:18;6.13;;;3.88;;
20441;SDS011;10380;52.102;20.614;2022-08-01T00:17:46;5.00;;;3.70;;
20441;SDS011;10380;52.102;20.614;2022-08-01T00:20:13;8.70;;;4.40;;
20441;SDS011;10380;52.102;20.614;2022-08-01T00:22:41;4.63;;;3.67;;
20441;SDS011;10380;52.102;20.614;2022-08-01T00:25:09;7.30;;;3.70;;
20441;SDS011;10380;52.102;20.614;2022-08-01T00:27:36;5.97;;;3.65;;
20441;SDS011;10380;52.102;20.614;2022-08-01T00:30:03;12.57;;;3.50;;
20441;SDS011;10380;52.102;20.614;2022-08-01T00:32:39;10.45;;;3.95;;
20441;SDS011;10380;52.102;20.614;2022-08-01T00:35:10;13.52;;;3.47;;
20441;SDS011;10380;52.102;20.614;2022-08-01T00:37:37;11.57;;;3.50;;
20441;SDS011;10380;52.102;20.614;2022-08-01T00:40:05;7.00;;;3.33;;
20441;SDS011;10380;52.102;20.614;2022-08-01T00:42:32;7.90;;;3.58;;
20441;SDS011;10380;52.102;20.614;2022-08-01T00:44:59;12.98;;;4.15;;
20441;SDS011;10380;52.102;20.614;2022-08-01T00:47:26;7.70;;;3.88;;
20441;SDS011;10380;52.102;20.614;2022-08-01T00:49:53;9.63;;;3.40;;
20441;SDS011;10380;52.102;20.614;2022-08-01T00:52:20;5.28;;;3.90;;
20441;SDS011;10380;52.102;20.614;2022-08-01T00:54:47;9.88;;;3.92;;
20441;SDS011;10380;52.102;20.614;2022-08-01T00:57:15;6.30;;;3.45;;
20441;SDS011;10380;52.102;20.614;2022-08-01T01:00:02;5.22;;;3.58;;
20441;SDS011;10380;52.102;20.614;2022-08-01T01:02:31;7.72;;;4.47;;
20441;SDS011;10380;52.102;20.614;2022-08-01T01:04:59;7.25;;;3.88;;
20441;SDS011;10380;52.102;20.614;2022-08-01T01:10:16;5.88;;;4.10;;
20441;SDS011;10380;52.102;20.614;2022-08-01T01:13:18;8.68;;;4.72;;
20441;SDS011;10380;52.102;20.614;2022-08-01T01:15:59;5.60;;;3.80;;
20441;SDS011;10380;52.102;20.614;2022-08-01T01:18:43;7.68;;;4.47;;
20441;SDS011;10380;52.102;20.614;2022-08-01T01:23:54;7.68;;;4.65;;
20441;SDS011;10380;52.102;20.614;2022-08-01T01:26:54;9.25;;;4.32;;
20441;SDS011;10380;52.102;20.614;2022-08-01T01:29:35;5.10;;;4.60;;
20441;SDS011;10380;52.102;20.614;2022-08-01T01:32:28;10.15;;;5.20;;
20441;SDS011;10380;52.102;20.614;2022-08-01T01:35:07;7.35;;;4.85;;
20441;SDS011;10380;52.102;20.614;2022-08-01T01:37:40;10.65;;;5.53;;
20441;SDS011;10380;52.102;20.614;2022-08-01T01:40:09;5.78;;;4.78;;
20441;SDS011;10380;52.102;20.614;2022-08-01T01:42:38;6.78;;;4.88;;
20441;SDS011;10380;52.102;20.614;2022-08-01T01:45:07;10.50;;;5.57;;
20441;SDS011;10380;52.102;20.614;2022-08-01T01:47:36;12.88;;;5.30;;
20441;SDS011;10380;52.102;20.614;2022-08-01T01:50:05;7.95;;;5.47;;
20441;SDS011;10380;52.102;20.614;2022-08-01T01:52:34;8.63;;;5.53;;
20441;SDS011;10380;52.102;20.614;2022-08-01T01:55:04;6.95;;;5.28;;
20441;SDS011;10380;52.102;20.614;2022-08-01T01:57:35;9.93;;;5.93;;
20441;SDS011;10380;52.102;20.614;2022-08-01T02:00:07;13.52;;;5.95;;
20441;SDS011;10380;52.102;20.614;2022-08-01T02:02:36;11.25;;;6.25;;
20441;SDS011;10380;52.102;20.614;2022-08-01T02:05:05;10.18;;;6.22;;
20441;SDS011;10380;52.102;20.614;2022-08-01T02:07:34;10.25;;;5.60;;
20441;SDS011;10380;52.102;20.614;2022-08-01T02:10:04;11.07;;;6.57;;
20441;SDS011;10380;52.102;20.614;2022-08-01T02:12:34;11.10;;;7.20;;
20441;SDS011;10380;52.102;20.614;2022-08-01T02:15:04;9.23;;;6.72;;
20441;SDS011;10380;52.102;20.614;2022-08-01T02:17:32;8.75;;;5.85;;
20441;SDS011;10380;52.102;20.614;2022-08-01T02:20:06;13.40;;;7.18;;
20441;SDS011;10380;52.102;20.614;2022-08-01T02:22:34;6.85;;;6.03;;
20441;SDS011;10380;52.102;20.614;2022-08-01T02:25:52;7.68;;;5.95;;
20441;SDS011;10380;52.102;20.614;2022-08-01T02:28:04;12.05;;;6.68;;
20441;SDS011;10380;52.102;20.614;2022-08-01T02:30:36;9.77;;;6.90;;
20441;SDS011;10380;52.102;20.614;2022-08-01T02:33:10;7.50;;;6.57;;
20441;SDS011;10380;52.102;20.614;2022-08-01T02:35:42;13.35;;;6.28;;
20441;SDS011;10380;52.102;20.614;2022-08-01T02:38:33;13.20;;;6.50;;
20441;SDS011;10380;52.102;20.614;2022-08-01T02:41:09;8.35;;;5.75;;
20441;SDS011;10380;52.102;20.614;2022-08-01T02:43:40;10.32;;;6.60;;
20441;SDS011;10380;52.102;20.614;2022-08-01T02:46:22;7.93;;;7.07;;
20441;SDS011;10380;52.102;20.614;2022-08-01T02:48:55;9.35;;;6.63;;
20441;SDS011;10380;52.102;20.614;2022-08-01T02:51:26;9.43;;;6.28;;
20441;SDS011;10380;52.102;20.614;2022-08-01T02:53:54;9.55;;;5.70;;
20441;SDS011;10380;52.102;20.614;2022-08-01T02:56:23;12.52;;;6.93;;
20441;SDS011;10380;52.102;20.614;2022-08-01T02:59:05;8.63;;;6.43;;
20441;SDS011;10380;52.102;20.614;2022-08-01T03:01:35;11.43;;;5.93;;
20441;SDS011;10380;52.102;20.614;2022-08-01T03:04:07;8.77;;;6.85;;
20441;SDS011;10380;52.102;20.614;2022-08-01T03:06:36;10.15;;;6.10;;
20441;SDS011;10380;52.102;20.614;2022-08-01T03:09:05;12.50;;;6.07;;
20441;SDS011;10380;52.102;20.614;2022-08-01T03:11:34;8.20;;;6.47;;
20441;SDS011;10380;52.102;20.614;2022-08-01T03:14:05;15.77;;;8.20;;
20441;SDS011;10380;52.102;20.614;2022-08-01T03:16:36;8.20;;;5.82;;
20441;SDS011;10380;52.102;20.614;2022-08-01T03:19:05;6.60;;;5.05;;
20441;SDS011;10380;52.102;20.614;2022-08-01T03:21:35;9.30;;;5.28;;
20441;SDS011;10380;52.102;20.614;2022-08-01T03:24:04;7.78;;;5.57;;
20441;SDS011;10380;52.102;20.614;2022-08-01T03:26:33;13.80;;;5.68;;
20441;SDS011;10380;52.102;20.614;2022-08-01T03:29:04;8.23;;;5.45;;
20441;SDS011;10380;52.102;20.614;2022-08-01T03:31:36;8.23;;;6.20;;
20441;SDS011;10380;52.102;20.614;2022-08-01T03:34:05;7.93;;;5.67;;
20441;SDS011;10380;52.102;20.614;2022-08-01T03:36:33;6.18;;;5.57;;
20441;SDS011;10380;52.102;20.614;2022-08-01T03:39:25;8.05;;;5.00;;
20441;SDS011;10380;52.102;20.614;2022-08-01T03:41:59;9.18;;;5.40;;
20441;SDS011;10380;52.102;20.614;2022-08-01T03:44:33;5.88;;;5.07;;
20441;SDS011;10380;52.102;20.614;2022-08-01T03:47:07;7.88;;;5.07;;
20441;SDS011;10380;52.102;20.614;2022-08-01T03:49:35;9.70;;;6.15;;
20441;SDS011;10380;52.102;20.614;2022-08-01T03:52:08;9.98;;;6.25;;
20441;SDS011;10380;52.102;20.614;2022-08-01T03:54:37;8.15;;;5.68;;
20441;SDS011;10380;52.102;20.614;2022-08-01T03:57:17;10.50;;;5.53;;
20441;SDS011;10380;52.102;20.614;2022-08-01T04:00:02;12.27;;;5.30;;
20441;SDS011;10380;52.102;20.614;2022-08-01T04:02:33;7.85;;;5.47;;
20441;SDS011;10380;52.102;20.614;2022-08-01T04:05:01;8.10;;;4.93;;
20441;SDS011;10380;52.102;20.614;2022-08-01T04:07:29;8.18;;;4.85;;
20441;SDS011;10380;52.102;20.614;2022-08-01T04:09:58;6.93;;;5.00;;
20441;SDS011;10380;52.102;20.614;2022-08-01T04:12:26;6.68;;;5.70;;
20441;SDS011;10380;52.102;20.614;2022-08-01T04:14:53;8.77;;;5.28;;
20441;SDS011;10380;52.102;20.614;2022-08-01T04:17:20;8.43;;;5.43;;
20441;SDS011;10380;52.102;20.614;2022-08-01T04:19:48;13.98;;;5.80;;
20441;SDS011;10380;52.102;20.614;2022-08-01T04:22:15;7.03;;;5.60;;
20441;SDS011;10380;52.102;20.614;2022-08-01T04:24:43;9.00;;;6.05;;
20441;SDS011;10380;52.102;20.614;2022-08-01T04:27:22;15.20;;;5.97;;
20441;SDS011;10380;52.102;20.614;2022-08-01T04:30:15;12.82;;;6.75;;
20441;SDS011;10380;52.102;20.614;2022-08-01T04:32:46;8.10;;;6.32;;
20441;SDS011;10380;52.102;20.614;2022-08-01T04:35:14;8.85;;;6.28;;
20441;SDS011;10380;52.102;20.614;2022-08-01T04:38:03;12.18;;;6.88;;
20441;SDS011;10380;52.102;20.614;2022-08-01T04:40:31;9.57;;;7.47;;
20441;SDS011;10380;52.102;20.614;2022-08-01T04:43:02;9.13;;;7.63;;
20441;SDS011;10380;52.102;20.614;2022-08-01T04:45:31;9.43;;;7.50;;
20441;SDS011;10380;52.102;20.614;2022-08-01T04:47:58;15.90;;;7.07;;
20441;SDS011;10380;52.102;20.614;2022-08-01T04:50:26;8.45;;;6.35;;
20441;SDS011;10380;52.102;20.614;2022-08-01T04:52:54;11.30;;;8.07;;
20441;SDS011;10380;52.102;20.614;2022-08-01T04:55:22;10.18;;;7.55;;
20441;SDS011;10380;52.102;20.614;2022-08-01T04:57:49;10.82;;;7.57;;
20441;SDS011;10380;52.102;20.614;2022-08-01T05:00:16;11.30;;;7.30;;
20441;SDS011;10380;52.102;20.614;2022-08-01T05:02:43;10.47;;;7.67;;
20441;SDS011;10380;52.102;20.614;2022-08-01T05:05:11;9.07;;;8.15;;
20441;SDS011;10380;52.102;20.614;2022-08-01T05:07:38;10.60;;;7.90;;
20441;SDS011;10380;52.102;20.614;2022-08-01T05:10:10;11.90;;;7.90;;
20441;SDS011;10380;52.102;20.614;2022-08-01T05:12:38;10.40;;;8.02;;
20441;SDS011;10380;52.102;20.614;2022-08-01T05:15:05;14.75;;;9.48;;
20441;SDS011;10380;52.102;20.614;2022-08-01T05:17:39;10.15;;;8.43;;
20441;SDS011;10380;52.102;20.614;2022-08-01T05:20:09;10.55;;;9.13;;
20441;SDS011;10380;52.102;20.614;2022-08-01T05:22:37;13.10;;;8.43;;
20441;SDS011;10380;52.102;20.614;2022-08-01T05:25:05;7.95;;;7.15;;
20441;SDS011;10380;52.102;20.614;2022-08-01T05:27:32;11.10;;;7.80;;
20441;SDS011;10380;52.102;20.614;2022-08-01T05:30:05;12.32;;;9.25;;
20441;SDS011;10380;52.102;20.614;2022-08-01T05:32:34;10.15;;;9.07;;
20441;SDS011;10380;52.102;20.614;2022-08-01T05:35:01;10.70;;;8.52;;
20441;SDS011;10380;52.102;20.614;2022-08-01T05:37:28;9.05;;;7.95;;
20441;SDS011;10380;52.102;20.614;2022-08-01T05:39:55;11.13;;;8.02;;
20441;SDS011;10380;52.102;20.614;2022-08-01T05:42:23;10.88;;;9.00;;
20441;SDS011;10380;52.102;20.614;2022-08-01T05:44:49;13.27;;;9.23;;
20441;SDS011;10380;52.102;20.614;2022-08-01T05:47:17;12.23;;;9.77;;
20441;SDS011;10380;52.102;20.614;2022-08-01T05:49:44;10.25;;;8.43;;
20441;SDS011;10380;52.102;20.614;2022-08-01T05:52:12;9.45;;;8.43;;
20441;SDS011;10380;52.102;20.614;2022-08-01T05:54:39;11.30;;;8.70;;
20441;SDS011;10380;52.102;20.614;2022-08-01T05:57:06;8.55;;;7.75;;
20441;SDS011;10380;52.102;20.614;2022-08-01T05:59:33;12.50;;;8.45;;
20441;SDS011;10380;52.102;20.614;2022-08-01T06:02:00;9.10;;;8.07;;
20441;SDS011;10380;52.102;20.614;2022-08-01T06:04:27;10.48;;;8.70;;
20441;SDS011;10380;52.102;20.614;2022-08-01T06:06:54;11.93;;;8.77;;
20441;SDS011;10380;52.102;20.614;2022-08-01T06:09:21;11.65;;;8.35;;
20441;SDS011;10380;52.102;20.614;2022-08-01T06:11:48;10.32;;;8.02;;
20441;SDS011;10380;52.102;20.614;2022-08-01T06:14:15;12.63;;;7.68;;
20441;SDS011;10380;52.102;20.614;2022-08-01T06:16:42;11.32;;;7.05;;
20441;SDS011;10380;52.102;20.614;2022-08-01T06:19:08;8.23;;;7.32;;
20441;SDS011;10380;52.102;20.614;2022-08-01T06:21:35;8.07;;;7.28;;
20441;SDS011;10380;52.102;20.614;2022-08-01T06:24:02;8.57;;;6.72;;
20441;SDS011;10380;52.102;20.614;2022-08-01T06:26:30;8.07;;;7.13;;
20441;SDS011;10380;52.102;20.614;2022-08-01T06:28:57;9.55;;;6.70;;
20441;SDS011;10380;52.102;20.614;2022-08-01T06:31:27;7.88;;;6.72;;
20441;SDS011;10380;52.102;20.614;2022-08-01T06:33:59;7.13;;;6.10;;
20441;SDS011;10380;52.102;20.614;2022-08-01T06:36:26;8.77;;;5.57;;
20441;SDS011;10380;52.102;20.614;2022-08-01T06:38:53;6.20;;;5.45;;
20441;SDS011;10380;52.102;20.614;2022-08-01T06:41:20;11.80;;;5.97;;
20441;SDS011;10380;52.102;20.614;2022-08-01T06:43:47;7.97;;;5.15;;
20441;SDS011;10380;52.102;20.614;2022-08-01T06:46:13;10.23;;;6.20;;
20441;SDS011;10380;52.102;20.614;2022-08-01T06:48:40;9.23;;;6.15;;
20441;SDS011;10380;52.102;20.614;2022-08-01T06:51:08;8.73;;;5.65;;
20441;SDS011;10380;52.102;20.614;2022-08-01T06:53:36;9.82;;;5.65;;
20441;SDS011;10380;52.102;20.614;2022-08-01T06:56:04;7.38;;;4.88;;
20441;SDS011;10380;52.102;20.614;2022-08-01T06:58:32;5.05;;;4.55;;
20441;SDS011;10380;52.102;20.614;2022-08-01T07:01:01;6.35;;;4.88;;
20441;SDS011;10380;52.102;20.614;2022-08-01T07:03:30;7.40;;;4.97;;
20441;SDS011;10380;52.102;20.614;2022-08-01T07:06:18;6.43;;;3.90;;
20441;SDS011;10380;52.102;20.614;2022-08-01T07:08:45;6.80;;;4.07;;
20441;SDS011;10380;52.102;20.614;2022-08-01T07:11:11;5.82;;;4.15;;
20441;SDS011;10380;52.102;20.614;2022-08-01T07:13:38;14.20;;;5.72;;
20441;SDS011;10380;52.102;20.614;2022-08-01T07:16:09;5.22;;;4.35;;
20441;SDS011;10380;52.102;20.614;2022-08-01T07:18:36;5.45;;;3.45;;
20441;SDS011;10380;52.102;20.614;2022-08-01T07:21:03;7.18;;;3.40;;
20441;SDS011;10380;52.102;20.614;2022-08-01T07:23:31;4.22;;;3.60;;
20441;SDS011;10380;52.102;20.614;2022-08-01T07:26:02;3.63;;;2.97;;
20441;SDS011;10380;52.102;20.614;2022-08-01T07:28:30;5.93;;;3.10;;
20441;SDS011;10380;52.102;20.614;2022-08-01T07:30:57;5.70;;;3.05;;
20441;SDS011;10380;52.102;20.614;2022-08-01T07:33:24;4.63;;;2.40;;
20441;SDS011;10380;52.102;20.614;2022-08-01T07:36:11;4.38;;;2.63;;
20441;SDS011;10380;52.102;20.614;2022-08-01T07:38:38;4.03;;;2.95;;
20441;SDS011;10380;52.102;20.614;2022-08-01T07:41:05;5.75;;;2.67;;
20441;SDS011;10380;52.102;20.614;2022-08-01T07:43:32;6.45;;;2.67;;
20441;SDS011;10380;52.102;20.614;2022-08-01T07:45:59;5.60;;;3.00;;
20441;SDS011;10380;52.102;20.614;2022-08-01T07:48:26;10.13;;;3.58;;
20441;SDS011;10380;52.102;20.614;2022-08-01T07:50:53;5.95;;;2.33;;
20441;SDS011;10380;52.102;20.614;2022-08-01T07:53:20;4.13;;;2.00;;
20441;SDS011;10380;52.102;20.614;2022-08-01T07:55:47;3.15;;;2.22;;
20441;SDS011;10380;52.102;20.614;2022-08-01T07:58:15;3.88;;;1.65;;
20441;SDS011;10380;52.102;20.614;2022-08-01T08:00:42;3.72;;;2.47;;
20441;SDS011;10380;52.102;20.614;2022-08-01T08:03:10;2.85;;;2.30;;
20441;SDS011;10380;52.102;20.614;2022-08-01T08:05:37;3.03;;;2.35;;
20441;SDS011;10380;52.102;20.614;2022-08-01T08:08:23;2.72;;;2.28;;
20441;SDS011;10380;52.102;20.614;2022-08-01T08:10:50;4.20;;;2.40;;
20441;SDS011;10380;52.102;20.614;2022-08-01T08:13:17;2.97;;;2.53;;
20441;SDS011;10380;52.102;20.614;2022-08-01T08:15:46;6.68;;;3.03;;
20441;SDS011;10380;52.102;20.614;2022-08-01T08:18:13;5.85;;;3.30;;
20441;SDS011;10380;52.102;20.614;2022-08-01T08:20:40;4.80;;;2.85;;
20441;SDS011;10380;52.102;20.614;2022-08-01T08:23:07;3.90;;;2.50;;
20441;SDS011;10380;52.102;20.614;2022-08-01T08:26:09;5.22;;;3.65;;
20441;SDS011;10380;52.102;20.614;2022-08-01T08:28:37;5.38;;;4.25;;
20441;SDS011;10380;52.102;20.614;2022-08-01T08:31:06;8.70;;;5.43;;
20441;SDS011;10380;52.102;20.614;2022-08-01T08:33:50;8.18;;;6.72;;
20441;SDS011;10380;52.102;20.614;2022-08-01T08:36:17;8.70;;;7.78;;
20441;SDS011;10380;52.102;20.614;2022-08-01T08:38:44;9.05;;;8.20;;
20441;SDS011;10380;52.102;20.614;2022-08-01T08:41:11;9.55;;;8.43;;
20441;SDS011;10380;52.102;20.614;2022-08-01T08:43:45;8.98;;;7.80;;
20441;SDS011;10380;52.102;20.614;2022-08-01T08:46:13;6.88;;;5.78;;
20441;SDS011;10380;52.102;20.614;2022-08-01T08:48:41;7.50;;;6.20;;
20441;SDS011;10380;52.102;20.614;2022-08-01T08:51:08;5.60;;;4.95;;
20441;SDS011;10380;52.102;20.614;2022-08-01T08:53:40;4.45;;;4.05;;
20441;SDS011;10380;52.102;20.614;2022-08-01T08:56:11;4.45;;;3.28;;
20441;SDS011;10380;52.102;20.614;2022-08-01T08:58:40;4.50;;;2.95;;
20441;SDS011;10380;52.102;20.614;2022-08-01T09:01:11;4.25;;;2.28;;
20441;SDS011;10380;52.102;20.614;2022-08-01T09:03:39;3.88;;;3.10;;
20441;SDS011;10380;52.102;20.614;2022-08-01T09:06:07;3.30;;;2.72;;
20441;SDS011;10380;52.102;20.614;2022-08-01T09:08:34;3.38;;;2.15;;
20441;SDS011;10380;52.102;20.614;2022-08-01T09:11:01;5.43;;;1.73;;
20441;SDS011;10380;52.102;20.614;2022-08-01T09:13:28;4.60;;;2.63;;
20441;SDS011;10380;52.102;20.614;2022-08-01T09:15:55;4.18;;;2.13;;
20441;SDS011;10380;52.102;20.614;2022-08-01T09:18:26;5.13;;;1.65;;
20441;SDS011;10380;52.102;20.614;2022-08-01T09:21:20;5.05;;;2.10;;
20441;SDS011;10380;52.102;20.614;2022-08-01T09:23:51;5.78;;;1.77;;
20441;SDS011;10380;52.102;20.614;2022-08-01T09:28:56;5.40;;;2.58;;
20441;SDS011;10380;52.102;20.614;2022-08-01T09:31:26;6.15;;;2.38;;
20441;SDS011;10380;52.102;20.614;2022-08-01T09:34:03;2.47;;;1.95;;
20441;SDS011;10380;52.102;20.614;2022-08-01T09:36:44;2.20;;;1.70;;
20441;SDS011;10380;52.102;20.614;2022-08-01T09:39:33;2.20;;;1.52;;
20441;SDS011;10380;52.102;20.614;2022-08-01T09:42:23;1.95;;;1.70;;
20441;SDS011;10380;52.102;20.614;2022-08-01T09:44:54;2.70;;;1.48;;
20441;SDS011;10380;52.102;20.614;2022-08-01T09:47:21;1.98;;;1.30;;
20441;SDS011;10380;52.102;20.614;2022-08-01T09:50:04;3.97;;;1.88;;
20441;SDS011;10380;52.102;20.614;2022-08-01T09:52:36;2.75;;;1.85;;
20441;SDS011;10380;52.102;20.614;2022-08-01T09:55:06;4.55;;;1.83;;
20441;SDS011;10380;52.102;20.614;2022-08-01T09:57:35;3.85;;;1.80;;
20441;SDS011;10380;52.102;20.614;2022-08-01T10:00:03;2.30;;;1.63;;
20441;SDS011;10380;52.102;20.614;2022-08-01T10:04:59;2.00;;;1.35;;
20441;SDS011;10380;52.102;20.614;2022-08-01T10:07:33;2.55;;;1.60;;
20441;SDS011;10380;52.102;20.614;2022-08-01T10:10:13;1.95;;;1.10;;
20441;SDS011;10380;52.102;20.614;2022-08-01T10:12:41;1.98;;;1.20;;
20441;SDS011;10380;52.102;20.614;2022-08-01T10:15:10;1.60;;;1.38;;
20441;SDS011;10380;52.102;20.614;2022-08-01T10:17:40;2.33;;;1.17;;
20441;SDS011;10380;52.102;20.614;2022-08-01T10:20:18;4.13;;;1.10;;
20441;SDS011;10380;52.102;20.614;2022-08-01T10:22:58;2.85;;;2.08;;
20441;SDS011;10380;52.102;20.614;2022-08-01T10:25:35;3.70;;;1.20;;
20441;SDS011;10380;52.102;20.614;2022-08-01T10:28:15;2.35;;;1.20;;
20441;SDS011;10380;52.102;20.614;2022-08-01T10:30:50;3.00;;;1.35;;
20441;SDS011;10380;52.102;20.614;2022-08-01T10:33:21;3.65;;;1.50;;
20441;SDS011;10380;52.102;20.614;2022-08-01T10:36:08;2.10;;;1.40;;
20441;SDS011;10380;52.102;20.614;2022-08-01T10:38:36;3.08;;;1.15;;
20441;SDS011;10380;52.102;20.614;2022-08-01T10:41:04;1.33;;;1.23;;
20441;SDS011;10380;52.102;20.614;2022-08-01T10:43:34;1.70;;;1.27;;
20441;SDS011;10380;52.102;20.614;2022-08-01T10:46:02;2.80;;;1.20;;
20441;SDS011;10380;52.102;20.614;2022-08-01T10:51:20;2.17;;;1.40;;
20441;SDS011;10380;52.102;20.614;2022-08-01T10:54:08;3.45;;;1.40;;
20441;SDS011;10380;52.102;20.614;2022-08-01T10:56:39;3.55;;;1.63;;
20441;SDS011;10380;52.102;20.614;2022-08-01T10:59:09;2.17;;;1.30;;
20441;SDS011;10380;52.102;20.614;2022-08-01T11:01:40;4.03;;;1.30;;
20441;SDS011;10380;52.102;20.614;2022-08-01T11:04:13;2.10;;;1.25;;
20441;SDS011;10380;52.102;20.614;2022-08-01T11:06:52;1.27;;;1.17;;
20441;SDS011;10380;52.102;20.614;2022-08-01T11:09:38;4.55;;;1.20;;
20441;SDS011;10380;52.102;20.614;2022-08-01T11:12:17;6.13;;;1.58;;
20441;SDS011;10380;52.102;20.614;2022-08-01T11:17:32;2.33;;;1.05;;
20441;SDS011;10380;52.102;20.614;2022-08-01T11:28:25;3.78;;;1.50;;
20441;SDS011;10380;52.102;20.614;2022-08-01T11:41:15;3.72;;;1.35;;
20441;SDS011;10380;52.102;20.614;2022-08-01T11:44:10;2.22;;;1.00;;
20441;SDS011;10380;52.102;20.614;2022-08-01T11:52:02;2.25;;;1.23;;
20441;SDS011;10380;52.102;20.614;2022-08-01T11:57:04;3.30;;;1.27;;
20441;SDS011;10380;52.102;20.614;2022-08-01T11:59:36;2.25;;;1.30;;
20441;SDS011;10380;52.102;20.614;2022-08-01T12:02:28;2.40;;;1.27;;
20441;SDS011;10380;52.102;20.614;2022-08-01T12:05:06;2.63;;;1.52;;
20441;SDS011;10380;52.102;20.614;2022-08-01T12:07:42;3.33;;;1.40;;
20441;SDS011;10380;52.102;20.614;2022-08-01T12:10:14;5.13;;;1.25;;
20441;SDS011;10380;52.102;20.614;2022-08-01T12:12:46;4.78;;;1.33;;
20441;SDS011;10380;52.102;20.614;2022-08-01T12:15:21;2.85;;;1.33;;
20441;SDS011;10380;52.102;20.614;2022-08-01T12:17:57;3.15;;;1.02;;
20441;SDS011;10380;52.102;20.614;2022-08-01T12:20:26;4.00;;;1.52;;
20441;SDS011;10380;52.102;20.614;2022-08-01T12:22:57;1.77;;;1.10;;
20441;SDS011;10380;52.102;20.614;2022-08-01T12:25:32;2.08;;;1.10;;
20441;SDS011;10380;52.102;20.614;2022-08-01T12:28:03;1.30;;;1.20;;
20441;SDS011;10380;52.102;20.614;2022-08-01T12:30:31;4.95;;;1.27;;
20441;SDS011;10380;52.102;20.614;2022-08-01T12:33:03;3.10;;;1.35;;
20441;SDS011;10380;52.102;20.614;2022-08-01T12:35:31;1.48;;;1.10;;
20441;SDS011;10380;52.102;20.614;2022-08-01T12:38:06;4.25;;;1.33;;
20441;SDS011;10380;52.102;20.614;2022-08-01T12:40:40;3.78;;;1.20;;
20441;SDS011;10380;52.102;20.614;2022-08-01T12:43:14;1.88;;;1.08;;
20441;SDS011;10380;52.102;20.614;2022-08-01T12:45:54;1.98;;;1.30;;
20441;SDS011;10380;52.102;20.614;2022-08-01T12:48:23;3.22;;;1.02;;
20441;SDS011;10380;52.102;20.614;2022-08-01T12:50:51;2.25;;;1.30;;
20441;SDS011;10380;52.102;20.614;2022-08-01T12:53:19;3.78;;;1.08;;
20441;SDS011;10380;52.102;20.614;2022-08-01T12:55:51;5.15;;;1.25;;
20441;SDS011;10380;52.102;20.614;2022-08-01T12:58:29;1.08;;;0.95;;
20441;SDS011;10380;52.102;20.614;2022-08-01T13:01:10;2.42;;;1.20;;
20441;SDS011;10380;52.102;20.614;2022-08-01T13:03:39;1.48;;;0.95;;
20441;SDS011;10380;52.102;20.614;2022-08-01T13:06:10;1.40;;;1.27;;
20441;SDS011;10380;52.102;20.614;2022-08-01T13:08:40;1.92;;;1.23;;
20441;SDS011;10380;52.102;20.614;2022-08-01T13:11:08;4.32;;;1.00;;
20441;SDS011;10380;52.102;20.614;2022-08-01T13:13:41;2.53;;;1.00;;
20441;SDS011;10380;52.102;20.614;2022-08-01T13:16:10;1.30;;;0.90;;
20441;SDS011;10380;52.102;20.614;2022-08-01T13:18:58;2.83;;;1.20;;
20441;SDS011;10380;52.102;20.614;2022-08-01T13:21:26;1.77;;;1.20;;
20441;SDS011;10380;52.102;20.614;2022-08-01T13:24:06;3.88;;;1.60;;
20441;SDS011;10380;52.102;20.614;2022-08-01T13:26:47;2.45;;;1.15;;
20441;SDS011;10380;52.102;20.614;2022-08-01T13:29:20;2.78;;;1.30;;
20441;SDS011;10380;52.102;20.614;2022-08-01T13:31:54;7.43;;;1.40;;
20441;SDS011;10380;52.102;20.614;2022-08-01T13:34:33;2.70;;;1.13;;
20441;SDS011;10380;52.102;20.614;2022-08-01T13:37:01;4.65;;;1.35;;
20441;SDS011;10380;52.102;20.614;2022-08-01T13:39:28;1.75;;;1.30;;
20441;SDS011;10380;52.102;20.614;2022-08-01T13:42:08;2.10;;;1.30;;
20441;SDS011;10380;52.102;20.614;2022-08-01T13:44:44;2.40;;;1.30;;
20441;SDS011;10380;52.102;20.614;2022-08-01T13:47:11;3.13;;;1.13;;
20441;SDS011;10380;52.102;20.614;2022-08-01T13:49:41;2.75;;;1.25;;
20441;SDS011;10380;52.102;20.614;2022-08-01T13:52:08;1.80;;;1.13;;
20441;SDS011;10380;52.102;20.614;2022-08-01T13:54:35;2.67;;;1.42;;
20441;SDS011;10380;52.102;20.614;2022-08-01T13:57:03;1.50;;;1.00;;
20441;SDS011;10380;52.102;20.614;2022-08-01T13:59:30;1.65;;;1.30;;
20441;SDS011;10380;52.102;20.614;2022-08-01T14:01:57;3.40;;;1.30;;
20441;SDS011;10380;52.102;20.614;2022-08-01T14:04:24;2.78;;;1.50;;
20441;SDS011;10380;52.102;20.614;2022-08-01T14:06:51;3.40;;;1.30;;
20441;SDS011;10380;52.102;20.614;2022-08-01T14:09:18;2.50;;;1.45;;
20441;SDS011;10380;52.102;20.614;2022-08-01T14:11:50;3.00;;;1.15;;
20441;SDS011;10380;52.102;20.614;2022-08-01T14:14:17;4.55;;;1.50;;
20441;SDS011;10380;52.102;20.614;2022-08-01T14:16:44;2.80;;;1.30;;
20441;SDS011;10380;52.102;20.614;2022-08-01T14:19:11;3.40;;;1.50;;
20441;SDS011;10380;52.102;20.614;2022-08-01T14:21:38;2.40;;;1.20;;
20441;SDS011;10380;52.102;20.614;2022-08-01T14:24:05;2.25;;;1.23;;
20441;SDS011;10380;52.102;20.614;2022-08-01T14:26:33;1.90;;;1.30;;
20441;SDS011;10380;52.102;20.614;2022-08-01T14:29:01;3.40;;;1.70;;
20441;SDS011;10380;52.102;20.614;2022-08-01T14:31:28;3.15;;;1.50;;
20441;SDS011;10380;52.102;20.614;2022-08-01T14:33:59;2.67;;;1.70;;
20441;SDS011;10380;52.102;20.614;2022-08-01T14:36:26;2.85;;;1.55;;
20441;SDS011;10380;52.102;20.614;2022-08-01T14:38:56;4.35;;;1.38;;
20441;SDS011;10380;52.102;20.614;2022-08-01T14:41:26;3.58;;;1.40;;
20441;SDS011;10380;52.102;20.614;2022-08-01T14:43:53;3.38;;;1.42;;
20441;SDS011;10380;52.102;20.614;2022-08-01T14:46:20;3.83;;;1.75;;
20441;SDS011;10380;52.102;20.614;2022-08-01T14:48:46;3.95;;;1.60;;
20441;SDS011;10380;52.102;20.614;2022-08-01T14:51:13;2.38;;;1.70;;
20441;SDS011;10380;52.102;20.614;2022-08-01T14:53:40;4.53;;;1.85;;
20441;SDS011;10380;52.102;20.614;2022-08-01T14:56:16;1.40;;;1.30;;
20441;SDS011;10380;52.102;20.614;2022-08-01T14:58:43;3.72;;;1.85;;
20441;SDS011;10380;52.102;20.614;2022-08-01T15:01:10;1.90;;;1.33;;
20441;SDS011;10380;52.102;20.614;2022-08-01T15:03:37;3.33;;;1.38;;
20441;SDS011;10380;52.102;20.614;2022-08-01T15:06:04;2.95;;;1.70;;
20441;SDS011;10380;52.102;20.614;2022-08-01T15:08:32;3.22;;;1.83;;
20441;SDS011;10380;52.102;20.614;2022-08-01T15:10:59;1.60;;;1.42;;
20441;SDS011;10380;52.102;20.614;2022-08-01T15:13:27;2.38;;;1.60;;
20441;SDS011;10380;52.102;20.614;2022-08-01T15:15:54;4.57;;;1.67;;
20441;SDS011;10380;52.102;20.614;2022-08-01T15:18:26;4.60;;;1.58;;
20441;SDS011;10380;52.102;20.614;2022-08-01T15:20:54;4.95;;;1.80;;
20441;SDS011;10380;52.102;20.614;2022-08-01T15:23:21;3.45;;;1.73;;
20441;SDS011;10380;52.102;20.614;2022-08-01T15:25:48;3.03;;;1.75;;
20441;SDS011;10380;52.102;20.614;2022-08-01T15:28:15;3.08;;;1.55;;
20441;SDS011;10380;52.102;20.614;2022-08-01T15:30:42;4.45;;;1.85;;
20441;SDS011;10380;52.102;20.614;2022-08-01T15:33:09;3.95;;;1.50;;
20441;SDS011;10380;52.102;20.614;2022-08-01T15:35:36;2.00;;;1.80;;